createdAt,value
2023-10-05T00:01:13.132Z,77.31
2023-10-05T00:03:59.867Z,77.11
2023-10-05T00:06:47.856Z,77.50
2023-10-05T00:09:34.182Z,77.19
2023-10-05T00:12:24.343Z,77.29
2023-10-05T00:15:13.099Z,77.68
2023-10-05T00:18:00.049Z,77.34
2023-10-05T00:20:49.601Z,77.57
2023-10-05T00:23:36.834Z,77.54
2023-10-05T00:26:29.986Z,77.72
2023-10-05T00:29:25.580Z,77.56
2023-10-05T00:32:16.908Z,77.24
2023-10-05T00:35:12.825Z,77.47
2023-10-05T00:38:17.555Z,77.36
2023-10-05T00:41:09.496Z,77.42
2023-10-05T00:43:56.820Z,77.62
2023-10-05T00:46:50.285Z,77.57
2023-10-05T00:49:49.947Z,77.54
2023-10-05T00:52:36.765Z,77.56
2023-10-05T00:55:24.223Z,77.36
2023-10-05T00:58:15.902Z,77.74
2023-10-05T01:01:07.064Z,78.21
2023-10-05T01:03:57.142Z,77.76
2023-10-05T01:06:50.609Z,77.79
2023-10-05T01:10:02.931Z,77.73
2023-10-05T01:12:52.608Z,77.76
2023-10-05T01:15:39.694Z,77.87
2023-10-05T01:18:27.468Z,77.54
2023-10-05T01:21:13.652Z,77.71
2023-10-05T01:24:00.278Z,77.63
2023-10-05T01:26:47.357Z,77.58
2023-10-05T01:29:35.315Z,77.76
2023-10-05T01:32:22.188Z,77.83
2023-10-05T01:35:16.283Z,77.74
2023-10-05T01:38:03.565Z,78.04
2023-10-05T01:40:52.619Z,77.81
2023-10-05T01:43:43.764Z,77.94
2023-10-05T01:46:34.088Z,77.92
2023-10-05T01:49:21.245Z,77.89
2023-10-05T01:52:08.960Z,77.83
2023-10-05T01:54:55.535Z,77.80
2023-10-05T01:57:43.854Z,77.92
2023-10-05T02:00:32.626Z,77.88
2023-10-05T02:03:20.500Z,78.01
2023-10-05T02:06:12.526Z,78.33
2023-10-05T02:08:59.215Z,78.04
2023-10-05T02:11:45.969Z,78.02
2023-10-05T02:14:32.167Z,78.35
2023-10-05T02:17:20.532Z,78.14
2023-10-05T02:20:09.513Z,78.27
2023-10-05T02:22:56.082Z,78.25
2023-10-05T02:25:43.602Z,78.39
2023-10-05T02:28:35.192Z,78.28
2023-10-05T02:31:23.324Z,78.56
2023-10-05T02:34:11.325Z,78.63
2023-10-05T02:36:58.002Z,78.53
2023-10-05T02:39:44.698Z,78.49
2023-10-05T02:42:31.283Z,78.62
2023-10-05T02:45:18.653Z,78.34
2023-10-05T02:48:11.224Z,78.55
2023-10-05T02:50:58.608Z,78.66
2023-10-05T02:53:47.676Z,78.85
2023-10-05T02:56:34.756Z,78.85
2023-10-05T02:59:25.525Z,78.84
2023-10-05T03:02:15.888Z,79.15
2023-10-05T03:05:06.476Z,79.01
2023-10-05T03:07:54.733Z,79.03
2023-10-05T03:10:45.239Z,79.27
2023-10-05T03:13:32.473Z,79.11
2023-10-05T03:16:22.888Z,79.25
2023-10-05T03:19:15.879Z,78.96
2023-10-05T03:22:07.100Z,78.98
2023-10-05T03:24:55.587Z,79.13
2023-10-05T03:27:42.989Z,78.98
2023-10-05T03:30:32.159Z,78.78
2023-10-05T03:33:19.165Z,78.84
2023-10-05T03:36:15.113Z,78.91
2023-10-05T03:39:07.687Z,79.09
2023-10-05T03:41:54.346Z,78.90
2023-10-05T03:44:41.452Z,78.76
2023-10-05T03:47:29.822Z,78.58
2023-10-05T03:50:22.737Z,78.66
2023-10-05T03:53:17.040Z,79.09
2023-10-05T03:56:04.006Z,78.77
2023-10-05T03:58:53.680Z,78.49
2023-10-05T04:01:40.319Z,78.39
2023-10-05T04:04:29.657Z,78.30
2023-10-05T04:07:17.235Z,78.37
2023-10-05T04:10:05.021Z,78.41
2023-10-05T04:12:56.324Z,78.32
2023-10-05T04:15:43.055Z,78.18
2023-10-05T04:18:30.975Z,78.12
2023-10-05T04:21:20.604Z,77.88
2023-10-05T04:24:07.671Z,77.96
2023-10-05T04:26:55.329Z,77.95
2023-10-05T04:29:41.818Z,78.00
2023-10-05T04:32:28.228Z,77.83
2023-10-05T04:35:24.223Z,77.82
2023-10-05T04:38:12.275Z,77.85
2023-10-05T04:40:59.810Z,77.80
2023-10-05T04:43:49.225Z,77.79
2023-10-05T04:46:36.160Z,77.70
2023-10-05T04:49:25.741Z,77.61
2023-10-05T04:52:20.590Z,77.54
2023-10-05T04:55:32.317Z,77.34
2023-10-05T04:58:32.184Z,77.33
2023-10-05T05:01:30.949Z,77.39
2023-10-05T05:04:36.874Z,77.24
2023-10-05T05:07:23.513Z,77.38
2023-10-05T05:10:12.948Z,77.18
2023-10-05T05:13:00.352Z,77.13
2023-10-05T05:15:47.456Z,77.15
2023-10-05T05:18:38.999Z,77.10
2023-10-05T05:21:25.870Z,77.01
2023-10-05T05:24:14.927Z,76.96
2023-10-05T05:27:04.731Z,77.01
2023-10-05T05:29:54.469Z,76.87
2023-10-05T05:32:43.642Z,76.82
2023-10-05T05:35:30.368Z,76.67
2023-10-05T05:38:17.205Z,76.52
2023-10-05T05:41:11.044Z,76.45
2023-10-05T05:43:57.704Z,76.46
2023-10-05T05:46:45.724Z,76.25
2023-10-05T05:49:32.374Z,76.28
2023-10-05T05:52:20.151Z,75.88
2023-10-05T05:55:11.940Z,75.89
2023-10-05T05:58:00.873Z,75.66
2023-10-05T06:00:47.762Z,75.18
2023-10-05T06:03:35.100Z,74.51
2023-10-05T06:06:22.134Z,74.82
2023-10-05T06:09:08.774Z,74.43
2023-10-05T06:11:55.602Z,74.35
2023-10-05T06:14:43.214Z,74.04
2023-10-05T06:17:31.080Z,74.40
2023-10-05T06:20:19.114Z,74.26
2023-10-05T06:23:07.291Z,74.07
2023-10-05T06:25:54.781Z,73.96
2023-10-05T06:28:41.451Z,73.53
2023-10-05T06:31:28.877Z,73.38
2023-10-05T06:34:15.502Z,73.17
2023-10-05T06:37:03.331Z,72.65
2023-10-05T06:39:49.890Z,72.78
2023-10-05T06:42:36.561Z,72.23
2023-10-05T06:45:24.935Z,71.91
2023-10-05T06:48:11.504Z,71.92
2023-10-05T06:50:59.471Z,71.19
2023-10-05T06:53:46.187Z,71.50
2023-10-05T06:56:32.686Z,71.81
2023-10-05T06:59:22.548Z,71.31
2023-10-05T07:02:14.482Z,71.06
2023-10-05T07:05:02.667Z,71.15
2023-10-05T07:07:49.036Z,71.16
2023-10-05T07:10:35.393Z,70.65
2023-10-05T07:13:24.203Z,70.89
2023-10-05T07:16:11.140Z,69.94
2023-10-05T07:18:58.548Z,70.08
2023-10-05T07:21:45.898Z,70.13
2023-10-05T07:24:32.865Z,69.08
2023-10-05T07:27:20.004Z,69.08
2023-10-05T07:30:09.953Z,69.10
2023-10-05T07:33:05.157Z,69.42
2023-10-05T07:36:00.607Z,68.52
2023-10-05T07:38:47.078Z,68.57
2023-10-05T07:41:34.014Z,67.89
2023-10-05T07:44:20.619Z,68.11
2023-10-05T07:47:08.015Z,67.83
2023-10-05T07:49:55.168Z,67.73
2023-10-05T07:52:45.296Z,68.30
2023-10-05T07:55:32.514Z,67.35
2023-10-05T07:58:20.531Z,67.00
2023-10-05T08:01:07.271Z,67.03
2023-10-05T08:03:54.585Z,66.61
2023-10-05T08:06:45.199Z,66.14
2023-10-05T08:09:31.466Z,66.03
2023-10-05T08:12:17.991Z,66.07
2023-10-05T08:15:06.583Z,65.91
2023-10-05T08:17:52.954Z,65.20
2023-10-05T08:20:39.628Z,65.19
2023-10-05T08:23:26.946Z,66.09
2023-10-05T08:26:14.198Z,65.43
2023-10-05T08:29:01.028Z,65.52
2023-10-05T08:31:47.987Z,64.78
2023-10-05T08:34:34.565Z,65.64
2023-10-05T08:37:23.394Z,65.45
2023-10-05T08:40:40.013Z,65.56
2023-10-05T08:43:26.416Z,65.18
2023-10-05T08:46:13.440Z,65.37
2023-10-05T08:49:08.840Z,65.34
2023-10-05T08:52:04.627Z,64.76
2023-10-05T08:54:52.414Z,64.56
2023-10-05T08:57:39.041Z,64.39
2023-10-05T09:00:39.689Z,64.47
2023-10-05T09:03:31.215Z,64.23
2023-10-05T09:06:21.928Z,64.33
2023-10-05T09:09:10.921Z,64.19
2023-10-05T09:11:57.743Z,63.96
2023-10-05T09:14:45.133Z,64.31
2023-10-05T09:17:34.936Z,63.64
2023-10-05T09:20:23.065Z,63.90
2023-10-05T09:23:15.008Z,63.33
2023-10-05T09:26:02.448Z,63.02
2023-10-05T09:28:53.293Z,63.03
2023-10-05T09:34:35.482Z,62.83
2023-10-05T09:37:25.903Z,62.98
2023-10-05T09:40:18.266Z,62.59
2023-10-05T09:43:07.169Z,62.43
2023-10-05T09:45:53.931Z,62.65
2023-10-05T09:48:41.495Z,62.64
2023-10-05T09:51:28.926Z,62.97
2023-10-05T09:54:18.221Z,62.47
2023-10-05T09:57:11.724Z,62.79
2023-10-05T10:00:01.211Z,62.97
2023-10-05T10:02:47.835Z,63.36
2023-10-05T10:05:42.974Z,63.72
2023-10-05T10:08:32.531Z,63.89
2023-10-05T10:11:20.851Z,64.19
2023-10-05T10:14:11.346Z,64.58
2023-10-05T10:17:01.841Z,65.13
2023-10-05T10:19:56.531Z,65.64
2023-10-05T10:22:51.793Z,66.13
2023-10-05T10:25:42.084Z,66.73
2023-10-05T10:28:52.255Z,67.20
2023-10-05T10:31:50.115Z,67.65
2023-10-05T10:34:51.017Z,67.84
2023-10-05T10:37:46.121Z,68.62
2023-10-05T10:40:33.988Z,69.02
2023-10-05T10:43:33.410Z,69.13
2023-10-05T10:46:35.213Z,69.26
2023-10-05T10:49:22.490Z,69.66
2023-10-05T10:52:23.400Z,69.96
2023-10-05T10:55:24.217Z,70.21
2023-10-05T10:58:15.072Z,70.92
2023-10-05T11:01:05.821Z,71.14
2023-10-05T11:04:02.203Z,71.42
2023-10-05T11:06:49.405Z,72.09
2023-10-05T11:09:38.984Z,72.50
2023-10-05T11:12:25.715Z,73.29
2023-10-05T11:15:12.645Z,74.80
2023-10-05T11:18:00.806Z,75.47
2023-10-05T11:20:53.602Z,74.86
2023-10-05T11:23:47.013Z,75.99
2023-10-05T11:26:44.521Z,75.50
2023-10-05T11:29:47.167Z,75.83
2023-10-05T11:33:00.832Z,77.01
2023-10-05T11:35:53.503Z,76.78
2023-10-05T11:38:40.380Z,77.00
2023-10-05T11:41:31.121Z,76.71
2023-10-05T11:44:25.275Z,77.30
2023-10-05T11:47:47.414Z,77.38
2023-10-05T11:50:34.459Z,77.72
2023-10-05T11:53:22.970Z,78.42
2023-10-05T11:56:10.969Z,78.89
2023-10-05T11:59:01.506Z,78.04
2023-10-05T12:01:48.875Z,78.97
2023-10-05T12:04:40.958Z,78.34
2023-10-05T12:07:27.925Z,78.69
2023-10-05T12:10:14.813Z,78.91
2023-10-05T12:13:03.676Z,77.97
2023-10-05T12:15:52.830Z,76.85
2023-10-05T12:18:43.301Z,74.90
2023-10-05T12:21:30.101Z,72.92
2023-10-05T12:24:36.814Z,71.00
2023-10-05T12:27:23.587Z,69.46
2023-10-05T12:30:13.737Z,66.53
2023-10-05T12:33:02.773Z,63.76
2023-10-05T12:35:53.899Z,60.83
2023-10-05T12:38:40.760Z,60.89
2023-10-05T12:41:37.796Z,57.40
2023-10-05T12:44:25.040Z,54.60
2023-10-05T12:47:11.911Z,54.16
2023-10-05T12:49:58.291Z,53.98
2023-10-05T12:52:44.905Z,52.54
2023-10-05T12:55:31.673Z,52.65
2023-10-05T12:58:18.332Z,51.39
2023-10-05T13:01:14.248Z,51.06
2023-10-05T13:04:02.517Z,50.47
2023-10-05T13:06:49.247Z,48.61
2023-10-05T13:09:36.225Z,49.58
2023-10-05T13:12:22.788Z,49.46
2023-10-05T13:15:10.314Z,50.60
2023-10-05T13:17:57.413Z,49.36
2023-10-05T13:20:45.360Z,49.93
2023-10-05T13:23:32.289Z,49.75
2023-10-05T13:26:19.493Z,47.25
2023-10-05T13:29:09.230Z,46.19
2023-10-05T13:31:57.415Z,45.22
2023-10-05T13:34:47.349Z,45.89
2023-10-05T13:37:35.610Z,46.31
2023-10-05T13:40:29.558Z,45.77
2023-10-05T13:43:15.958Z,43.35
2023-10-05T13:46:23.376Z,42.88
2023-10-05T13:49:10.443Z,39.81
2023-10-05T13:52:00.068Z,42.23
2023-10-05T13:54:47.803Z,43.99
2023-10-05T13:57:34.401Z,46.78
2023-10-05T14:00:21.069Z,48.80
2023-10-05T14:03:07.720Z,50.42
2023-10-05T14:06:02.818Z,49.76
2023-10-05T14:08:49.503Z,46.29
2023-10-05T14:11:39.317Z,43.59
2023-10-05T14:14:26.488Z,41.15
2023-10-05T14:17:13.209Z,43.33
2023-10-05T14:19:59.890Z,45.25
2023-10-05T14:22:47.182Z,47.29
2023-10-05T14:25:34.103Z,48.84
2023-10-05T14:28:25.103Z,49.20
2023-10-05T14:31:12.388Z,48.33
2023-10-05T14:34:01.480Z,45.89
2023-10-05T14:36:50.169Z,46.40
2023-10-05T14:39:38.483Z,47.53
2023-10-05T14:42:25.956Z,48.75
2023-10-05T14:45:15.778Z,50.07
2023-10-05T14:48:08.877Z,48.64
2023-10-05T14:50:56.656Z,45.67
2023-10-05T14:53:44.409Z,44.28
2023-10-05T14:56:30.970Z,44.71
2023-10-05T14:59:17.961Z,44.37
2023-10-05T15:02:04.317Z,43.11
2023-10-05T15:04:50.650Z,43.99
2023-10-05T15:07:48.404Z,43.15
2023-10-05T15:10:35.407Z,42.74
2023-10-05T15:13:22.438Z,43.82
2023-10-05T15:16:10.419Z,45.58
2023-10-05T15:18:57.261Z,48.23
2023-10-05T15:21:43.754Z,50.40
2023-10-05T15:24:32.268Z,52.70
2023-10-05T15:27:19.102Z,54.57
2023-10-05T15:30:11.105Z,56.39
2023-10-05T15:32:57.358Z,57.17
2023-10-05T15:35:44.405Z,57.77
2023-10-05T15:38:31.112Z,59.54
2023-10-05T15:41:19.872Z,60.15
2023-10-05T15:44:09.467Z,61.20
2023-10-05T15:46:56.737Z,62.02
2023-10-05T15:49:43.429Z,62.48
2023-10-05T15:52:29.980Z,62.59
2023-10-05T15:55:18.268Z,63.58
2023-10-05T15:58:08.525Z,64.11
2023-10-05T16:00:57.085Z,64.03
2023-10-05T16:03:43.427Z,64.26
2023-10-05T16:06:30.498Z,64.46
2023-10-05T16:09:17.189Z,64.39
2023-10-05T16:12:06.172Z,63.74
2023-10-05T16:14:54.572Z,64.56
2023-10-05T16:17:49.373Z,65.19
2023-10-05T16:20:38.916Z,64.99
2023-10-05T16:23:25.960Z,65.14
2023-10-05T16:26:13.206Z,65.46
2023-10-05T16:29:00.192Z,65.43
2023-10-05T16:34:37.856Z,66.62
2023-10-05T16:37:24.528Z,66.97
2023-10-05T16:40:13.710Z,67.48
2023-10-05T16:43:01.820Z,67.69
2023-10-05T16:45:48.784Z,67.91
2023-10-05T16:48:36.972Z,68.22
2023-10-05T16:51:23.432Z,68.09
2023-10-05T16:54:11.105Z,68.37
2023-10-05T16:56:58.277Z,68.42
2023-10-05T16:59:45.256Z,69.08
2023-10-05T17:02:32.016Z,70.33
2023-10-05T17:05:20.893Z,69.62
2023-10-05T17:08:07.818Z,71.24
2023-10-05T17:10:54.140Z,70.59
2023-10-05T17:13:41.154Z,70.57
2023-10-05T17:16:30.717Z,71.59
2023-10-05T17:19:17.153Z,71.27
2023-10-05T17:22:03.750Z,71.59
2023-10-05T17:24:54.986Z,72.22
2023-10-05T17:27:42.075Z,72.16
2023-10-05T17:30:28.474Z,72.49
2023-10-05T17:33:15.079Z,72.20
2023-10-05T17:36:01.892Z,72.11
2023-10-05T17:38:49.471Z,72.28
2023-10-05T17:41:36.312Z,72.20
2023-10-05T17:44:23.271Z,72.54
2023-10-05T17:47:10.962Z,73.27
2023-10-05T17:49:58.012Z,72.76
2023-10-05T17:52:46.556Z,72.82
2023-10-05T17:55:36.534Z,72.91
2023-10-05T17:58:27.491Z,72.95
2023-10-05T18:01:18.758Z,73.77
2023-10-05T18:04:06.908Z,73.19
2023-10-05T18:06:53.324Z,73.69
2023-10-05T18:09:40.071Z,74.11
2023-10-05T18:12:26.757Z,73.47
2023-10-05T18:15:15.547Z,74.18
2023-10-05T18:18:03.433Z,74.55
2023-10-05T18:20:50.736Z,74.85
2023-10-05T18:23:39.153Z,75.44
2023-10-05T18:26:26.505Z,74.89
2023-10-05T18:29:14.161Z,74.59
2023-10-05T18:32:03.221Z,74.86
2023-10-05T18:34:50.447Z,74.96
2023-10-05T18:37:38.464Z,75.79
2023-10-05T18:40:25.628Z,76.08
2023-10-05T18:43:14.405Z,75.45
2023-10-05T18:46:01.889Z,75.60
2023-10-05T18:48:48.781Z,75.77
2023-10-05T18:51:37.938Z,75.80
2023-10-05T18:54:25.078Z,75.76
2023-10-05T18:57:13.549Z,75.75
2023-10-05T19:00:03.086Z,76.00
2023-10-05T19:02:50.741Z,75.69
2023-10-05T19:05:38.083Z,75.87
2023-10-05T19:08:24.734Z,76.16
2023-10-05T19:11:11.997Z,75.67
2023-10-05T19:13:58.828Z,76.14
2023-10-05T19:16:45.818Z,76.54
2023-10-05T19:19:32.942Z,75.80
2023-10-05T19:22:20.560Z,75.72
2023-10-05T19:25:07.943Z,76.19
2023-10-05T19:27:54.970Z,75.85
2023-10-05T19:30:42.153Z,75.83
2023-10-05T19:33:29.103Z,76.00
2023-10-05T19:36:16.396Z,75.55
2023-10-05T19:39:05.053Z,75.58
2023-10-05T19:41:55.254Z,75.67
2023-10-05T19:44:42.352Z,75.41
2023-10-05T19:47:30.072Z,75.56
2023-10-05T19:50:17.059Z,75.88
2023-10-05T19:53:03.989Z,75.68
2023-10-05T19:55:57.992Z,75.43
2023-10-05T19:58:44.767Z,75.55
2023-10-05T20:01:31.326Z,75.77
2023-10-05T20:04:18.027Z,75.76
2023-10-05T20:07:08.729Z,75.96
2023-10-05T20:09:57.795Z,75.99
2023-10-05T20:12:44.520Z,76.15
2023-10-05T20:15:31.357Z,76.28
2023-10-05T20:18:18.175Z,77.01
2023-10-05T20:21:13.265Z,76.68
2023-10-05T20:24:00.182Z,77.07
2023-10-05T20:26:46.705Z,77.10
2023-10-05T20:29:33.092Z,77.27
2023-10-05T20:32:19.671Z,77.32
2023-10-05T20:35:07.526Z,77.29
2023-10-05T20:37:54.118Z,77.71
2023-10-05T20:40:40.896Z,77.41
2023-10-05T20:43:28.246Z,77.35
2023-10-05T20:46:15.145Z,77.62
2023-10-05T20:49:01.691Z,77.54
2023-10-05T20:51:48.184Z,77.48
2023-10-05T20:54:35.115Z,77.42
2023-10-05T20:57:21.789Z,77.15
2023-10-05T21:00:10.004Z,77.65
2023-10-05T21:02:56.615Z,77.34
2023-10-05T21:05:43.388Z,77.71
2023-10-05T21:08:30.325Z,77.45
2023-10-05T21:11:16.596Z,77.89
2023-10-05T21:14:03.192Z,78.12
2023-10-05T21:16:53.142Z,78.01
2023-10-05T21:19:40.555Z,78.27
2023-10-05T21:22:27.067Z,78.11
2023-10-05T21:25:14.837Z,78.43
2023-10-05T21:28:01.425Z,78.42
2023-10-05T21:30:48.429Z,78.46
2023-10-05T21:33:35.192Z,78.71
2023-10-05T21:36:22.165Z,78.70
2023-10-05T21:39:08.992Z,79.04
2023-10-05T21:41:55.871Z,78.86
2023-10-05T21:44:42.485Z,79.09
2023-10-05T21:47:29.179Z,79.24
2023-10-05T21:50:15.774Z,79.23
2023-10-05T21:53:05.472Z,79.51
2023-10-05T21:55:52.300Z,79.31
2023-10-05T21:58:39.147Z,79.22
2023-10-05T22:01:25.870Z,79.20
2023-10-05T22:04:12.682Z,79.36
2023-10-05T22:06:59.368Z,79.69
2023-10-05T22:09:46.244Z,79.46
2023-10-05T22:12:36.001Z,79.59
2023-10-05T22:15:22.790Z,80.06
2023-10-05T22:18:11.660Z,79.67
2023-10-05T22:20:59.159Z,80.04
2023-10-05T22:23:45.734Z,80.22
2023-10-05T22:26:32.358Z,80.48
2023-10-05T22:29:19.230Z,80.26
2023-10-05T22:32:05.939Z,80.39
2023-10-05T22:34:52.777Z,80.07
2023-10-05T22:37:40.045Z,80.29
2023-10-05T22:40:26.236Z,80.68
2023-10-05T22:43:12.867Z,80.30
2023-10-05T22:45:59.277Z,80.35
2023-10-05T22:48:45.767Z,80.32
2023-10-05T22:51:32.115Z,80.39
2023-10-05T22:54:18.659Z,80.66
2023-10-05T22:57:05.336Z,80.60
2023-10-05T22:59:52.662Z,80.59
2023-10-05T23:02:39.833Z,80.67
2023-10-05T23:05:27.124Z,80.56
2023-10-05T23:08:13.619Z,80.66
2023-10-05T23:11:01.083Z,81.02
2023-10-05T23:13:50.334Z,81.08
2023-10-05T23:16:37.259Z,80.87
2023-10-05T23:19:23.625Z,81.03
2023-10-05T23:22:12.001Z,81.33
2023-10-05T23:24:59.025Z,81.26
2023-10-05T23:27:47.667Z,81.16
2023-10-05T23:30:34.332Z,81.35
2023-10-05T23:33:26.956Z,81.40
2023-10-05T23:36:16.751Z,81.30
2023-10-05T23:39:09.907Z,81.68
2023-10-05T23:41:57.854Z,81.44
2023-10-05T23:44:47.808Z,81.75
2023-10-05T23:47:37.614Z,81.89
2023-10-05T23:50:30.904Z,82.08
2023-10-05T23:53:17.361Z,82.25
2023-10-05T23:56:10.406Z,82.24
2023-10-05T23:58:57.271Z,81.83
